createdAt,value
2022-09-11T00:01:29.375Z,498.15
2022-09-11T00:03:57.266Z,496.73
2022-09-11T00:06:30.556Z,492.92
2022-09-11T00:11:40.649Z,494.13
2022-09-11T00:14:10.470Z,501.55
2022-09-11T00:16:41.491Z,496.67
2022-09-11T00:19:16.129Z,495.15
2022-09-11T00:21:43.480Z,493.83
2022-09-11T00:24:11.184Z,495.45
2022-09-11T00:26:40.229Z,495.88
2022-09-11T00:29:08.302Z,498.95
2022-09-11T00:31:35.728Z,496.08
2022-09-11T00:34:03.529Z,494.52
2022-09-11T00:36:31.934Z,495.58
2022-09-11T00:38:59.883Z,492.13
2022-09-11T00:41:34.533Z,491.27
2022-09-11T00:44:16.195Z,490.80
2022-09-11T00:46:50.215Z,492.33
2022-09-11T00:49:38.659Z,491.50
2022-09-11T00:52:12.716Z,490.38
2022-09-11T00:54:56.508Z,491.48
2022-09-11T00:59:59.240Z,484.63
2022-09-11T01:02:29.906Z,493.33
2022-09-11T01:04:58.434Z,491.40
2022-09-11T01:07:28.774Z,451.38
2022-09-11T01:09:57.395Z,467.52
2022-09-11T01:12:30.835Z,475.58
2022-09-11T01:17:54.368Z,333.88
2022-09-11T01:20:36.771Z,478.80
2022-09-11T01:23:22.740Z,481.85
2022-09-11T01:25:52.920Z,481.65
2022-09-11T01:28:38.520Z,491.80
2022-09-11T01:31:12.696Z,486.77
2022-09-11T01:33:48.020Z,487.00
2022-09-11T01:36:41.201Z,488.35
2022-09-11T01:39:08.599Z,337.25
2022-09-11T01:42:00.348Z,481.75
2022-09-11T01:44:41.754Z,480.52
2022-09-11T01:47:12.754Z,482.67
2022-09-11T01:49:43.656Z,480.70
2022-09-11T01:52:18.912Z,481.60
2022-09-11T01:54:55.051Z,486.90
2022-09-11T01:57:48.961Z,485.17
2022-09-11T02:00:17.427Z,481.35
2022-09-11T02:03:00.725Z,482.25
2022-09-11T02:05:39.336Z,481.23
2022-09-11T02:08:17.287Z,478.80
2022-09-11T02:10:52.562Z,476.60
2022-09-11T02:13:45.301Z,481.08
2022-09-11T02:16:30.470Z,474.08
2022-09-11T02:19:09.365Z,472.58
2022-09-11T02:21:37.554Z,473.27
2022-09-11T02:24:07.661Z,470.95
2022-09-11T02:26:39.768Z,475.98
2022-09-11T02:29:08.229Z,476.05
2022-09-11T02:31:36.554Z,476.60
2022-09-11T02:34:04.338Z,469.92
2022-09-11T02:36:32.237Z,474.92
2022-09-11T02:38:59.531Z,475.52
2022-09-11T02:41:58.877Z,476.20
2022-09-11T02:45:05.592Z,472.02
2022-09-11T02:47:39.069Z,474.15
2022-09-11T02:50:34.231Z,472.85
2022-09-11T02:53:12.917Z,472.33
2022-09-11T02:55:56.868Z,469.30
2022-09-11T02:58:33.433Z,467.15
2022-09-11T03:01:01.965Z,467.80
2022-09-11T03:03:40.383Z,470.45
2022-09-11T03:06:18.756Z,466.90
2022-09-11T03:08:47.554Z,471.63
2022-09-11T03:11:15.529Z,465.42
2022-09-11T03:13:45.879Z,463.73
2022-09-11T03:16:15.560Z,466.35
2022-09-11T03:18:42.947Z,467.23
2022-09-11T03:21:11.572Z,459.90
2022-09-11T03:23:39.297Z,459.98
2022-09-11T03:26:07.417Z,460.90
2022-09-11T03:28:35.042Z,458.38
2022-09-11T03:31:09.679Z,458.25
2022-09-11T03:33:37.926Z,458.25
2022-09-11T03:36:05.737Z,461.67
2022-09-11T03:38:33.296Z,463.30
2022-09-11T03:41:03.080Z,462.15
2022-09-11T03:43:33.394Z,460.25
2022-09-11T03:46:01.070Z,464.33
2022-09-11T03:48:29.360Z,462.48
2022-09-11T03:50:59.081Z,462.08
2022-09-11T03:53:27.860Z,461.40
2022-09-11T03:55:56.479Z,460.92
2022-09-11T03:58:24.066Z,454.63
2022-09-11T04:00:51.569Z,461.23
2022-09-11T04:03:19.368Z,456.50
2022-09-11T04:06:00.141Z,451.38
2022-09-11T04:08:28.651Z,454.58
2022-09-11T04:10:58.461Z,450.48
2022-09-11T04:13:37.125Z,453.90
2022-09-11T04:16:10.489Z,451.55
2022-09-11T04:18:42.560Z,453.48
2022-09-11T04:21:12.974Z,457.75
2022-09-11T04:23:41.810Z,451.23
2022-09-11T04:26:18.362Z,453.75
2022-09-11T04:28:49.396Z,455.83
2022-09-11T04:31:18.744Z,454.60
2022-09-11T04:33:47.854Z,456.98
2022-09-11T04:36:19.270Z,456.13
2022-09-11T04:38:48.000Z,459.13
2022-09-11T04:41:16.623Z,461.45
2022-09-11T04:43:44.919Z,464.40
2022-09-11T04:46:16.627Z,461.30
2022-09-11T04:48:53.146Z,460.65
2022-09-11T04:51:30.431Z,461.75
2022-09-11T04:53:59.953Z,461.98
2022-09-11T04:56:37.924Z,467.38
2022-09-11T04:59:13.562Z,468.95
2022-09-11T05:01:44.614Z,466.63
2022-09-11T05:04:13.288Z,464.98
2022-09-11T05:06:42.782Z,468.88
2022-09-11T05:09:13.381Z,470.10
2022-09-11T05:11:41.130Z,468.55
2022-09-11T05:14:11.881Z,481.77
2022-09-11T05:16:43.913Z,488.10
2022-09-11T05:19:13.951Z,478.55
2022-09-11T05:21:43.897Z,481.50
2022-09-11T05:24:11.667Z,487.17
2022-09-11T05:26:40.943Z,490.15
2022-09-11T05:29:12.689Z,499.83
2022-09-11T05:31:46.152Z,503.00
2022-09-11T05:34:16.258Z,510.98
2022-09-11T05:36:43.713Z,522.10
2022-09-11T05:39:11.554Z,526.13
2022-09-11T05:41:40.124Z,532.50
2022-09-11T05:44:08.164Z,554.33
2022-09-11T05:46:37.981Z,558.38
2022-09-11T05:49:07.108Z,558.05
2022-09-11T05:51:37.817Z,569.58
2022-09-11T05:54:06.546Z,567.20
2022-09-11T05:56:35.332Z,580.33
2022-09-11T05:59:14.528Z,568.50
2022-09-11T06:01:44.003Z,578.83
2022-09-11T06:04:28.265Z,576.95
2022-09-11T06:06:58.085Z,574.35
2022-09-11T06:09:27.965Z,578.97
2022-09-11T06:11:55.455Z,576.22
2022-09-11T06:14:23.031Z,574.47
2022-09-11T06:16:51.785Z,577.58
2022-09-11T06:19:19.899Z,569.40
2022-09-11T06:21:47.371Z,574.60
2022-09-11T06:24:23.822Z,561.67
2022-09-11T06:26:51.476Z,559.55
2022-09-11T06:29:19.951Z,561.55
2022-09-11T06:31:51.604Z,551.15
2022-09-11T06:34:23.505Z,555.25
2022-09-11T06:36:52.457Z,544.10
2022-09-11T06:39:23.330Z,545.60
2022-09-11T06:41:54.129Z,545.45
2022-09-11T06:44:27.890Z,543.72
2022-09-11T06:46:59.579Z,545.88
2022-09-11T06:49:27.786Z,548.22
2022-09-11T06:52:13.553Z,547.47
2022-09-11T06:54:50.683Z,541.40
2022-09-11T06:57:19.974Z,542.22
2022-09-11T06:59:47.464Z,541.08
2022-09-11T07:02:16.539Z,546.78
2022-09-11T07:04:47.614Z,545.85
2022-09-11T07:07:15.759Z,544.03
2022-09-11T07:09:43.402Z,542.92
2022-09-11T07:12:12.460Z,551.75
2022-09-11T07:14:40.709Z,550.22
2022-09-11T07:17:14.800Z,560.20
2022-09-11T07:19:44.486Z,561.35
2022-09-11T07:22:14.861Z,570.97
2022-09-11T07:24:42.197Z,563.50
2022-09-11T07:27:10.495Z,562.72
2022-09-11T07:29:37.951Z,561.00
2022-09-11T07:32:06.877Z,559.88
2022-09-11T07:34:34.230Z,556.05
2022-09-11T07:37:05.967Z,559.75
2022-09-11T07:39:37.132Z,555.42
2022-09-11T07:42:09.278Z,555.00
2022-09-11T07:44:37.791Z,552.67
2022-09-11T07:47:05.795Z,550.25
2022-09-11T07:52:06.751Z,552.03
2022-09-11T07:54:40.402Z,550.60
2022-09-11T07:57:07.901Z,551.05
2022-09-11T07:59:35.696Z,551.38
2022-09-11T08:02:04.689Z,553.45
2022-09-11T08:04:32.661Z,552.65
2022-09-11T08:07:00.149Z,552.13
2022-09-11T08:09:32.555Z,553.03
2022-09-11T08:12:02.219Z,554.17
2022-09-11T08:14:32.175Z,553.30
2022-09-11T08:17:07.285Z,556.13
2022-09-11T08:19:37.063Z,553.45
2022-09-11T08:22:04.556Z,553.80
2022-09-11T08:24:36.480Z,551.40
2022-09-11T08:27:07.052Z,556.42
2022-09-11T08:29:38.671Z,556.97
2022-09-11T08:32:06.848Z,556.80
2022-09-11T08:34:34.576Z,560.85
2022-09-11T08:37:01.990Z,559.60
2022-09-11T08:39:33.233Z,560.55
2022-09-11T08:42:13.021Z,561.38
2022-09-11T08:44:47.875Z,567.15
2022-09-11T08:47:33.998Z,557.80
2022-09-11T08:50:09.561Z,558.13
2022-09-11T08:52:37.511Z,554.65
2022-09-11T08:55:14.475Z,558.15
2022-09-11T08:57:49.208Z,569.20
2022-09-11T09:00:25.159Z,566.33
2022-09-11T09:03:32.213Z,559.88
2022-09-11T09:07:16.514Z,564.60
2022-09-11T09:09:56.193Z,565.45
2022-09-11T09:12:35.647Z,567.97
2022-09-11T09:15:17.904Z,569.85
2022-09-11T09:18:15.075Z,572.22
2022-09-11T09:20:51.009Z,568.30
2022-09-11T09:23:22.220Z,573.60
2022-09-11T09:25:53.329Z,579.55
2022-09-11T09:28:25.632Z,568.97
2022-09-11T09:30:58.815Z,570.13
2022-09-11T09:33:37.345Z,564.17
2022-09-11T09:36:33.253Z,566.78
2022-09-11T09:39:02.518Z,568.47
2022-09-11T09:42:06.624Z,564.38
2022-09-11T09:45:11.437Z,568.97
2022-09-11T09:47:44.780Z,570.08
2022-09-11T09:50:29.146Z,566.40
2022-09-11T09:53:29.827Z,561.10
2022-09-11T09:55:59.976Z,568.05
2022-09-11T09:58:33.550Z,559.70
2022-09-11T10:01:01.054Z,564.55
2022-09-11T10:03:28.455Z,561.53
2022-09-11T10:05:57.026Z,565.92
2022-09-11T10:08:30.072Z,561.35
2022-09-11T10:11:12.341Z,562.75
2022-09-11T10:13:42.899Z,567.67
2022-09-11T10:16:40.341Z,564.25
2022-09-11T10:19:46.859Z,566.88
2022-09-11T10:22:33.073Z,574.03
2022-09-11T10:25:13.800Z,571.08
2022-09-11T10:28:03.521Z,595.75
2022-09-11T10:30:40.387Z,599.10
2022-09-11T10:33:26.999Z,597.80
2022-09-11T10:35:55.878Z,599.78
2022-09-11T10:38:41.429Z,612.00
2022-09-11T10:41:19.328Z,609.45
2022-09-11T10:43:49.110Z,612.88
2022-09-11T10:46:19.351Z,606.70
2022-09-11T10:49:09.277Z,592.75
2022-09-11T10:51:42.186Z,597.50
2022-09-11T10:54:44.732Z,604.83
2022-09-11T10:57:38.573Z,588.33
2022-09-11T11:00:23.105Z,577.10
2022-09-11T11:02:54.687Z,585.08
2022-09-11T11:05:46.873Z,582.83
2022-09-11T11:08:40.693Z,584.83
2022-09-11T11:11:22.417Z,586.75
2022-09-11T11:14:15.630Z,588.53
2022-09-11T11:17:06.376Z,578.92
2022-09-11T11:20:12.728Z,576.78
2022-09-11T11:22:58.550Z,579.85
2022-09-11T11:25:46.794Z,575.03
2022-09-11T11:28:25.960Z,576.58
2022-09-11T11:31:15.941Z,573.10
2022-09-11T11:34:01.212Z,573.90
2022-09-11T11:36:40.917Z,578.00
2022-09-11T11:39:36.712Z,574.08
2022-09-11T11:42:14.951Z,572.38
2022-09-11T11:45:05.704Z,572.90
2022-09-11T11:47:42.628Z,575.00
2022-09-11T11:50:49.204Z,576.15
2022-09-11T11:53:42.253Z,580.17
2022-09-11T11:56:29.874Z,578.60
2022-09-11T11:59:04.167Z,587.13
2022-09-11T12:01:48.438Z,580.40
2022-09-11T12:04:53.057Z,577.58
2022-09-11T12:07:27.299Z,574.90
2022-09-11T12:09:56.369Z,573.28
2022-09-11T12:12:29.857Z,571.60
2022-09-11T12:15:07.806Z,574.85
2022-09-11T12:17:37.421Z,575.22
2022-09-11T12:20:10.887Z,572.22
2022-09-11T12:25:22.192Z,573.67
2022-09-11T12:27:53.587Z,575.97
2022-09-11T12:30:25.094Z,569.70
2022-09-11T12:32:55.574Z,568.73
2022-09-11T12:35:35.191Z,569.60
2022-09-11T12:38:13.432Z,570.08
2022-09-11T12:40:51.393Z,577.83
2022-09-11T12:43:29.068Z,571.88
2022-09-11T12:45:57.176Z,575.78
2022-09-11T12:48:43.015Z,570.88
2022-09-11T12:51:23.597Z,570.33
2022-09-11T12:54:03.284Z,568.03
2022-09-11T12:56:36.977Z,570.72
2022-09-11T12:59:09.608Z,566.80
2022-09-11T13:01:44.784Z,570.97
2022-09-11T13:04:12.475Z,569.15
2022-09-11T13:07:05.467Z,569.05
2022-09-11T13:09:41.448Z,564.73
2022-09-11T13:12:24.087Z,563.55
2022-09-11T13:14:55.324Z,562.15
2022-09-11T13:17:30.469Z,567.80
2022-09-11T13:20:16.091Z,563.28
2022-09-11T13:22:43.485Z,562.45
2022-09-11T13:25:23.218Z,560.65
2022-09-11T13:27:56.975Z,560.33
2022-09-11T13:30:25.274Z,557.50
2022-09-11T13:33:08.430Z,551.92
2022-09-11T13:35:40.354Z,374.27
2022-09-11T13:38:23.524Z,556.05
2022-09-11T13:40:58.180Z,556.30
2022-09-11T13:43:30.930Z,553.35
2022-09-11T13:46:26.018Z,558.50
2022-09-11T13:49:14.735Z,554.58
2022-09-11T13:51:45.624Z,554.70
2022-09-11T13:54:26.188Z,552.45
2022-09-11T13:56:56.412Z,553.47
2022-09-11T13:59:49.225Z,558.30
2022-09-11T14:02:24.508Z,559.97
2022-09-11T14:04:56.363Z,550.42
2022-09-11T14:07:27.762Z,553.47
2022-09-11T14:10:17.576Z,552.92
2022-09-11T14:12:54.479Z,551.72
2022-09-11T14:15:40.387Z,548.85
2022-09-11T14:18:34.176Z,554.17
2022-09-11T14:21:06.481Z,557.55
2022-09-11T14:23:43.286Z,548.97
2022-09-11T14:26:19.614Z,555.53
2022-09-11T14:28:59.746Z,550.90
2022-09-11T14:34:26.535Z,547.67
2022-09-11T14:39:33.891Z,545.33
2022-09-11T14:42:06.230Z,551.45
2022-09-11T14:44:35.710Z,543.72
2022-09-11T14:47:03.186Z,545.83
2022-09-11T14:49:30.675Z,543.08
2022-09-11T14:52:00.194Z,542.75
2022-09-11T14:54:33.099Z,545.55
2022-09-11T14:57:01.193Z,387.55
2022-09-11T14:59:31.459Z,544.30
2022-09-11T15:01:59.039Z,540.92
2022-09-11T15:04:27.524Z,548.22
2022-09-11T15:06:55.684Z,546.40
2022-09-11T15:09:24.632Z,563.28
2022-09-11T15:11:53.204Z,545.42
2022-09-11T15:14:38.552Z,544.63
2022-09-11T15:17:11.279Z,540.40
2022-09-11T15:19:38.711Z,538.25
2022-09-11T15:22:07.408Z,539.83
2022-09-11T15:24:35.056Z,541.65
2022-09-11T15:27:03.999Z,544.05
2022-09-11T15:29:31.853Z,534.10
2022-09-11T15:32:02.153Z,535.47
2022-09-11T15:34:31.935Z,532.38
2022-09-11T15:37:00.132Z,535.45
2022-09-11T15:39:28.276Z,531.15
2022-09-11T15:41:56.885Z,533.22
2022-09-11T15:44:27.514Z,530.92
2022-09-11T15:46:56.953Z,533.42
2022-09-11T15:49:24.988Z,532.85
2022-09-11T15:51:56.541Z,531.55
2022-09-11T15:54:24.292Z,529.47
2022-09-11T15:56:52.259Z,535.30
2022-09-11T15:59:19.915Z,529.85
2022-09-11T16:01:47.699Z,528.17
2022-09-11T16:04:20.337Z,533.60
2022-09-11T16:06:49.051Z,369.92
2022-09-11T16:09:19.070Z,530.72
2022-09-11T16:11:48.134Z,530.45
2022-09-11T16:14:20.090Z,528.30
2022-09-11T16:16:48.289Z,528.00
2022-09-11T16:19:20.703Z,531.17
2022-09-11T16:21:49.111Z,374.00
2022-09-11T16:24:16.941Z,528.05
2022-09-11T16:26:44.996Z,527.85
2022-09-11T16:29:14.931Z,535.88
2022-09-11T16:31:42.945Z,530.95
2022-09-11T16:34:11.471Z,532.22
2022-09-11T16:36:39.272Z,533.33
2022-09-11T16:39:08.128Z,529.10
2022-09-11T16:41:37.228Z,531.47
2022-09-11T16:44:05.883Z,528.65
2022-09-11T16:46:34.171Z,533.15
2022-09-11T16:49:02.209Z,528.22
2022-09-11T16:51:30.471Z,527.65
2022-09-11T16:53:57.946Z,528.60
2022-09-11T16:56:26.025Z,527.05
2022-09-11T16:58:54.809Z,528.08
2022-09-11T17:01:25.065Z,527.63
2022-09-11T17:03:56.507Z,533.08
2022-09-11T17:06:30.220Z,527.83
2022-09-11T17:09:00.105Z,533.58
2022-09-11T17:11:29.447Z,529.75
2022-09-11T17:13:57.010Z,529.55
2022-09-11T17:16:27.813Z,526.50
2022-09-11T17:18:56.794Z,534.00
2022-09-11T17:21:25.851Z,530.10
2022-09-11T17:23:57.639Z,527.50
2022-09-11T17:26:25.324Z,523.87
2022-09-11T17:28:53.425Z,529.10
2022-09-11T17:31:21.825Z,529.72
2022-09-11T17:33:49.874Z,530.95
2022-09-11T17:36:19.803Z,526.08
2022-09-11T17:38:49.467Z,528.22
2022-09-11T17:41:17.019Z,530.85
2022-09-11T17:43:44.406Z,528.17
2022-09-11T17:46:15.236Z,530.58
2022-09-11T17:48:43.757Z,527.85
2022-09-11T17:51:14.311Z,533.63
2022-09-11T17:53:44.683Z,531.92
2022-09-11T17:56:18.269Z,525.75
2022-09-11T17:58:49.338Z,533.63
2022-09-11T18:01:17.308Z,527.75
2022-09-11T18:03:49.596Z,525.58
2022-09-11T18:06:22.340Z,524.15
2022-09-11T18:08:49.699Z,364.92
2022-09-11T18:11:17.477Z,529.28
2022-09-11T18:13:45.016Z,525.97
2022-09-11T18:16:12.535Z,526.70
2022-09-11T18:18:40.333Z,523.08
2022-09-11T18:21:09.187Z,525.58
2022-09-11T18:23:42.609Z,528.55
2022-09-11T18:28:39.788Z,522.88
2022-09-11T18:31:07.680Z,514.63
2022-09-11T18:33:34.958Z,511.85
2022-09-11T18:36:08.702Z,523.83
2022-09-11T18:38:37.555Z,522.38
2022-09-11T18:41:05.367Z,524.15
2022-09-11T18:43:33.752Z,524.47
2022-09-11T18:46:04.031Z,524.05
2022-09-11T18:48:31.811Z,525.47
2022-09-11T18:51:08.653Z,520.45
2022-09-11T18:53:36.319Z,522.90
2022-09-11T18:56:05.258Z,532.47
2022-09-11T18:58:34.024Z,518.53
2022-09-11T19:01:07.079Z,526.97
2022-09-11T19:03:34.871Z,521.60
2022-09-11T19:06:10.868Z,521.33
2022-09-11T19:08:39.614Z,518.08
2022-09-11T19:11:12.499Z,518.20
2022-09-11T19:13:40.451Z,518.40
2022-09-11T19:16:07.982Z,514.88
2022-09-11T19:18:36.592Z,515.63
2022-09-11T19:21:12.250Z,516.20
2022-09-11T19:23:43.772Z,517.42
2022-09-11T19:26:18.269Z,518.88
2022-09-11T19:28:47.352Z,514.88
2022-09-11T19:31:17.032Z,516.47
2022-09-11T19:33:44.929Z,518.38
2022-09-11T19:36:25.806Z,516.10
2022-09-11T19:39:00.629Z,516.47
2022-09-11T19:41:31.073Z,518.03
2022-09-11T19:44:00.515Z,514.45
2022-09-11T19:46:29.504Z,517.88
2022-09-11T19:49:00.601Z,517.30
2022-09-11T19:51:34.034Z,517.45
2022-09-11T19:56:31.601Z,514.55
2022-09-11T19:59:00.345Z,519.05
2022-09-11T20:01:29.664Z,515.17
2022-09-11T20:03:58.005Z,518.35
2022-09-11T20:06:28.912Z,518.90
2022-09-11T20:09:19.693Z,517.20
2022-09-11T20:11:46.346Z,517.63
2022-09-11T20:14:13.722Z,519.55
2022-09-11T20:16:41.457Z,515.22
2022-09-11T20:19:10.446Z,511.80
2022-09-11T20:21:38.603Z,516.10
2022-09-11T20:24:09.485Z,512.40
2022-09-11T20:26:37.102Z,514.10
2022-09-11T20:29:07.208Z,512.20
2022-09-11T20:31:46.536Z,513.55
2022-09-11T20:34:16.382Z,514.85
2022-09-11T20:36:43.800Z,514.67
2022-09-11T20:39:13.833Z,512.42
2022-09-11T20:41:41.420Z,515.40
2022-09-11T20:44:08.750Z,519.45
2022-09-11T20:46:36.243Z,516.58
2022-09-11T20:49:05.127Z,515.92
2022-09-11T20:51:34.194Z,517.83
2022-09-11T20:54:01.789Z,518.10
2022-09-11T20:56:29.280Z,518.17
2022-09-11T20:58:57.620Z,515.60
2022-09-11T21:01:26.904Z,513.03
2022-09-11T21:03:56.599Z,514.63
2022-09-11T21:06:30.227Z,512.80
2022-09-11T21:09:03.885Z,511.17
2022-09-11T21:11:31.491Z,512.13
2022-09-11T21:13:59.503Z,511.10
2022-09-11T21:16:27.177Z,510.15
2022-09-11T21:18:57.491Z,512.83
2022-09-11T21:21:26.726Z,508.25
2022-09-11T21:23:55.607Z,511.52
2022-09-11T21:26:23.403Z,510.38
2022-09-11T21:28:50.667Z,512.50
2022-09-11T21:31:19.806Z,510.85
2022-09-11T21:33:47.276Z,510.50
2022-09-11T21:36:14.782Z,512.20
2022-09-11T21:38:42.193Z,512.05
2022-09-11T21:41:12.201Z,509.67
2022-09-11T21:43:40.094Z,509.40
2022-09-11T21:46:09.212Z,511.73
2022-09-11T21:48:38.126Z,510.88
2022-09-11T21:51:14.292Z,512.10
2022-09-11T21:53:44.795Z,512.67
2022-09-11T21:56:27.220Z,512.78
2022-09-11T21:58:55.109Z,514.10
2022-09-11T22:01:24.973Z,511.77
2022-09-11T22:03:52.918Z,511.70
2022-09-11T22:06:23.883Z,511.52
2022-09-11T22:08:51.915Z,510.63
2022-09-11T22:11:21.062Z,513.17
2022-09-11T22:13:48.874Z,512.15
2022-09-11T22:16:18.445Z,511.33
2022-09-11T22:18:49.443Z,508.83
2022-09-11T22:21:17.153Z,510.42
2022-09-11T22:23:44.996Z,511.60
2022-09-11T22:26:15.674Z,508.70
2022-09-11T22:28:43.992Z,509.17
2022-09-11T22:31:24.050Z,512.25
2022-09-11T22:33:52.737Z,511.67
2022-09-11T22:36:26.185Z,508.73
2022-09-11T22:38:54.199Z,508.48
2022-09-11T22:41:22.649Z,510.90
2022-09-11T22:43:53.067Z,510.00
2022-09-11T22:46:21.107Z,511.33
2022-09-11T22:48:48.624Z,511.10
2022-09-11T22:51:16.785Z,513.25
2022-09-11T22:53:44.613Z,512.38
2022-09-11T22:56:13.912Z,513.55
2022-09-11T22:58:41.479Z,511.52
2022-09-11T23:01:11.903Z,515.92
2022-09-11T23:03:39.279Z,515.85
2022-09-11T23:06:25.242Z,514.03
2022-09-11T23:08:52.795Z,515.40
2022-09-11T23:11:20.256Z,510.33
2022-09-11T23:13:48.719Z,513.55
2022-09-11T23:16:19.647Z,517.30
2022-09-11T23:18:52.645Z,514.83
2022-09-11T23:21:20.163Z,333.05
2022-09-11T23:23:54.545Z,514.50
2022-09-11T23:26:23.046Z,512.38
2022-09-11T23:28:50.679Z,511.55
2022-09-11T23:31:20.546Z,514.47
2022-09-11T23:33:48.729Z,511.05
2022-09-11T23:36:16.549Z,511.13
2022-09-11T23:38:45.793Z,507.95
2022-09-11T23:41:13.658Z,509.92
2022-09-11T23:43:41.201Z,511.95
2022-09-11T23:46:08.883Z,508.90
2022-09-11T23:48:36.509Z,511.92
2022-09-11T23:51:04.013Z,511.05
2022-09-11T23:53:31.431Z,510.45
2022-09-11T23:55:59.206Z,510.30
2022-09-11T23:58:26.875Z,511.10
